KSMF/SMF METAR and TAF weather

Enter ICAO airport designator
Station Type Date Time Source
KSMF METAR 2018/12/12 06:53 UTC NOAA

KSMF 120653Z 16007KT 7SM BKN200 09/06 A3019 RMK AO2 SLP221 T00890061


Station Type Date Time Source
KSMF Decoded METAR 2018/12/12 06:53 UTC NOAA

SACRAMENTO INTERNATIONAL AIRPORT, CA, United States (KSMF) 38-42N 121-36W 6M
Dec 12, 2018 - 01:53 AM EST / 2018.12.12 0653 UTC
Wind: from the SSE (160 degrees) at 8 MPH (7 KT):0
Visibility: 7 mile(s):0
Sky conditions: mostly cloudy
Temperature: 48.0 F (8.9 C)
Dew Point: 43.0 F (6.1 C)
Relative Humidity: 82%
Pressure (altimeter): 30.19 in. Hg (1022 hPa)
ob: KSMF 120653Z 16007KT 7SM BKN200 09/06 A3019 RMK AO2 SLP221 T00890061
cycle: 7

Station Type Date Time Source
KSMF TAF 2018/12/12 06:51 UTC NOAA

TAF KSMF 120549Z 1206/1306 15005KT P6SM BKN200
FM121100 16005KT 2SM BR SCT003 SCT200
FM121200 34005KT 1/2SM FG SCT200
FM121600 34012KT P6SM SCT250
FM122000 34014KT P6SM SCT250
FM130500 28005KT P6SM SKC


Example: see airport list